Terminal Aerodrome Forecast
Issued by NWS Charleston, WV

Current Version | Previous Version | Text Only | Print | Product List | Glossary Off
Versions: 1 2 3 4 5 6 7 8 9 10 11 12 13 14 15 16 17 18 19 20

523
FTUS41 KRLX 220903 AAA
TAFHTS
TAF AMD
KHTS 220903Z 2209/2306 03007KT P6SM OVC045
     FM221200 03008KT P6SM OVC030
     FM221500 02008KT 3SM SHRA SCT007 OVC015
     FM222100 04009KT P6SM OVC010
     FM222300 04008KT P6SM OVC020
     FM230500 04006KT P6SM OVC030=

USA.gov is the U.S. government's official web portal to all federal, state and local government web resources and services.